My Haven — 6YSZ5 — position and weather

sailwx.info

Track history (hours):
 
Tides and Currents Weather Stations Pressure Air Temp Water Temp Dewpoint Dewpoint Depression Visibility Wind Speed Wind Dir Waves Ship Positions

My Haven

Last reported at 2017-Sep-20 15:55 UTC. Time now 2017-Sep-24 10:28 UTC.
Position N 34°25' W 076°48'.

Length 31 m; draft 2.4 m.

MMSI: 339557000.

Date/timePositionNaut miles runAvg speedWind from/ knotsBaromVisibWave heightAir tempDewpointWater temp
2017-Sep-20 15:55N 34°25' W 076°48'513.1
2017-Sep-20 15:31N 34°30' W 076°45'612.9
2017-Sep-20 15:01N 34°35' W 076°41'  
2017-Sep-16 23:34N 34°43' W 076°40'0 0.0
2017-Sep-16 23:30N 34°43' W 076°40'1 2.9
2017-Sep-16 23:01N 34°43' W 076°42'510.3
2017-Sep-16 22:30N 34°48' W 076°41'4 7.6
2017-Sep-16 22:00N 34°52' W 076°41'4 8.4
2017-Sep-16 21:31N 34°56' W 076°39'110 3.7
2017-Sep-15 16:06N 36°43' W 076°14'0 3.5
2017-Sep-15 16:00N 36°43' W 076°14'1 1.0
2017-Sep-15 15:27N 36°44' W 076°15'3 7.1
2017-Sep-15 15:00N 36°46' W 076°18'1 2.0
2017-Sep-15 14:31N 36°47' W 076°18'1 2.7
2017-Sep-15 14:00N 36°48' W 076°18'3 5.4
2017-Sep-15 13:30N 36°51' W 076°18'0 0.0
2017-Sep-14 22:02N 36°50' W 076°18'0 0.0
2017-Sep-14 22:00N 36°50' W 076°18'0 0.2
2017-Sep-14 21:30N 36°51' W 076°18'8112.0
2017-Sep-14 14:45N 38°12' W 076°17'43 1.9
2017-Sep-13 16:28N 38°54' W 076°25'  
Track history (hours):
 
Tides and Currents Weather Stations Pressure Air Temp Water Temp Dewpoint Dewpoint Depression Visibility Wind Speed Wind Dir Waves Ship Positions

My Haven

Last reported at 2017-Sep-20 15:55 UTC. Time now 2017-Sep-24 10:28 UTC.
Position N 34°25' W 076°48'.

Length 31 m; draft 2.4 m.

MMSI: 339557000.

Date/timePositionNaut miles runAvg speedWind from/ knotsBaromVisibWave heightAir tempDewpointWater temp
2017-Sep-20 15:55N 34°25' W 076°48'513.1
2017-Sep-20 15:31N 34°30' W 076°45'612.9
2017-Sep-20 15:01N 34°35' W 076°41'  
2017-Sep-16 23:34N 34°43' W 076°40'0 0.0
2017-Sep-16 23:30N 34°43' W 076°40'1 2.9
2017-Sep-16 23:01N 34°43' W 076°42'510.3
2017-Sep-16 22:30N 34°48' W 076°41'4 7.6
2017-Sep-16 22:00N 34°52' W 076°41'4 8.4
2017-Sep-16 21:31N 34°56' W 076°39'110 3.7
2017-Sep-15 16:06N 36°43' W 076°14'0 3.5
2017-Sep-15 16:00N 36°43' W 076°14'1 1.0
2017-Sep-15 15:27N 36°44' W 076°15'3 7.1
2017-Sep-15 15:00N 36°46' W 076°18'1 2.0
2017-Sep-15 14:31N 36°47' W 076°18'1 2.7
2017-Sep-15 14:00N 36°48' W 076°18'3 5.4
2017-Sep-15 13:30N 36°51' W 076°18'0 0.0
2017-Sep-14 22:02N 36°50' W 076°18'0 0.0
2017-Sep-14 22:00N 36°50' W 076°18'0 0.2
2017-Sep-14 21:30N 36°51' W 076°18'8112.0
2017-Sep-14 14:45N 38°12' W 076°17'43 1.9
2017-Sep-13 16:28N 38°54' W 076°25'  

Dump ship's entire track history